createdAt,value
2019-01-14T00:01:23.455Z,3.47
2019-01-14T00:03:51.845Z,3.80
2019-01-14T00:06:19.739Z,2.80
2019-01-14T00:08:47.337Z,2.40
2019-01-14T00:11:14.983Z,3.27
2019-01-14T00:13:43.449Z,2.97
2019-01-14T00:16:11.371Z,2.60
2019-01-14T00:18:39.324Z,2.10
2019-01-14T00:21:07.592Z,3.13
2019-01-14T00:23:35.558Z,2.67
2019-01-14T00:26:04.072Z,3.23
2019-01-14T00:28:32.369Z,3.73
2019-01-14T00:31:00.003Z,4.03
2019-01-14T00:33:28.608Z,2.30
2019-01-14T00:35:56.928Z,3.17
2019-01-14T00:38:24.845Z,1.87
2019-01-14T00:40:53.663Z,2.47
2019-01-14T00:43:22.200Z,1.60
2019-01-14T00:45:50.501Z,1.40
2019-01-14T00:48:18.800Z,2.77
2019-01-14T00:50:46.358Z,2.50
2019-01-14T00:53:14.958Z,2.67
2019-01-14T00:55:42.835Z,2.60
2019-01-14T00:58:11.116Z,1.53
2019-01-14T01:00:39.453Z,2.03
2019-01-14T01:03:07.410Z,2.30
2019-01-14T01:05:35.336Z,1.93
2019-01-14T01:08:02.581Z,2.97
2019-01-14T01:10:30.265Z,2.37
2019-01-14T01:12:57.920Z,2.90
2019-01-14T01:15:25.700Z,3.17
2019-01-14T01:17:53.727Z,2.77
2019-01-14T01:20:21.856Z,2.47
2019-01-14T01:22:49.906Z,2.40
2019-01-14T01:25:18.299Z,2.10
2019-01-14T01:27:46.709Z,2.27
2019-01-14T01:30:16.293Z,3.87
2019-01-14T01:32:44.364Z,3.57
2019-01-14T01:35:13.212Z,3.10
2019-01-14T01:37:41.503Z,2.87
2019-01-14T01:40:12.769Z,3.30
2019-01-14T01:42:41.030Z,2.83
2019-01-14T01:45:09.236Z,3.13
2019-01-14T01:47:37.568Z,3.40
2019-01-14T01:50:06.002Z,3.30
2019-01-14T01:52:33.572Z,3.90
2019-01-14T01:55:01.832Z,2.30
2019-01-14T01:57:29.688Z,3.10
2019-01-14T01:59:58.443Z,2.73
2019-01-14T02:02:25.990Z,3.00
2019-01-14T02:04:53.656Z,2.07
2019-01-14T02:07:21.565Z,2.23
2019-01-14T02:09:49.947Z,3.10
2019-01-14T02:12:17.569Z,2.10
2019-01-14T02:14:45.511Z,1.80
2019-01-14T02:17:13.780Z,2.00
2019-01-14T02:19:41.330Z,1.80
2019-01-14T02:22:09.220Z,2.03
2019-01-14T02:24:37.850Z,2.07
2019-01-14T02:27:05.498Z,2.50
2019-01-14T02:29:33.572Z,1.47
2019-01-14T02:32:01.207Z,2.07
2019-01-14T02:34:29.509Z,0.97
2019-01-14T02:36:57.114Z,1.73
2019-01-14T02:39:25.036Z,1.37
2019-01-14T02:41:53.434Z,1.40
2019-01-14T02:44:22.108Z,1.10
2019-01-14T02:46:50.458Z,0.90
2019-01-14T02:49:18.480Z,1.03
2019-01-14T02:51:46.514Z,1.23
2019-01-14T02:54:14.352Z,1.00
2019-01-14T02:56:42.299Z,1.00
2019-01-14T02:59:09.933Z,1.17
2019-01-14T03:01:38.224Z,1.00
2019-01-14T03:04:06.244Z,1.30
2019-01-14T03:06:34.537Z,1.20
2019-01-14T03:09:03.021Z,0.87
2019-01-14T03:11:31.303Z,2.00
2019-01-14T03:13:59.911Z,0.80
2019-01-14T03:16:27.562Z,1.63
2019-01-14T03:18:56.138Z,1.83
2019-01-14T03:21:24.327Z,1.57
2019-01-14T03:23:52.279Z,1.53
2019-01-14T03:26:20.969Z,1.20
2019-01-14T03:28:51.047Z,1.53
2019-01-14T03:31:21.104Z,1.20
2019-01-14T03:33:49.175Z,2.00
2019-01-14T03:36:17.230Z,2.40
2019-01-14T03:38:45.155Z,2.23
2019-01-14T03:41:12.783Z,1.63
2019-01-14T03:43:41.107Z,0.80
2019-01-14T03:46:08.999Z,1.70
2019-01-14T03:48:37.084Z,2.70
2019-01-14T03:51:05.472Z,2.10
2019-01-14T03:53:32.987Z,2.60
2019-01-14T03:56:00.906Z,3.13
2019-01-14T03:58:29.177Z,2.47
2019-01-14T04:00:57.119Z,3.57
2019-01-14T04:03:24.762Z,2.73
2019-01-14T04:05:52.649Z,2.53
2019-01-14T04:08:20.927Z,3.20
2019-01-14T04:10:49.114Z,3.70
2019-01-14T04:13:17.064Z,2.50
2019-01-14T04:15:45.534Z,2.50
2019-01-14T04:18:13.916Z,2.87
2019-01-14T04:20:42.601Z,2.50
2019-01-14T04:23:10.903Z,2.47
2019-01-14T04:25:39.243Z,3.60
2019-01-14T04:28:06.876Z,2.30
2019-01-14T04:30:34.813Z,2.73
2019-01-14T04:33:02.422Z,2.33
2019-01-14T04:35:30.417Z,3.23
2019-01-14T04:37:58.678Z,3.23
2019-01-14T04:40:26.699Z,2.20
2019-01-14T04:42:54.727Z,3.30
2019-01-14T04:45:23.277Z,2.90
2019-01-14T04:47:51.885Z,3.50
2019-01-14T04:50:21.119Z,2.97
2019-01-14T04:52:49.436Z,3.47
2019-01-14T04:55:17.363Z,3.00
2019-01-14T04:57:45.375Z,3.00
2019-01-14T05:00:19.536Z,2.53
2019-01-14T05:02:47.903Z,2.70
2019-01-14T05:05:15.666Z,2.27
2019-01-14T05:07:43.925Z,2.73
2019-01-14T05:10:11.629Z,2.33
2019-01-14T05:12:39.333Z,3.70
2019-01-14T05:15:09.065Z,2.47
2019-01-14T05:17:37.116Z,2.67
2019-01-14T05:20:07.157Z,2.70
2019-01-14T05:22:35.790Z,3.67
2019-01-14T05:25:04.155Z,2.90
2019-01-14T05:27:32.396Z,3.10
2019-01-14T05:30:00.637Z,2.87
2019-01-14T05:32:28.655Z,2.33
2019-01-14T05:34:57.432Z,3.77
2019-01-14T05:37:25.746Z,3.80
2019-01-14T05:39:53.777Z,2.23
2019-01-14T05:42:22.438Z,2.40
2019-01-14T05:44:50.747Z,3.00
2019-01-14T05:47:18.847Z,3.10
2019-01-14T05:49:47.503Z,2.90
2019-01-14T05:52:15.151Z,2.80
2019-01-14T05:54:43.448Z,2.70
2019-01-14T05:57:12.136Z,3.60
2019-01-14T05:59:40.072Z,2.97
2019-01-14T06:02:07.943Z,2.90
2019-01-14T06:04:35.878Z,2.57
2019-01-14T06:07:03.558Z,3.33
2019-01-14T06:09:31.561Z,3.23
2019-01-14T06:11:59.962Z,3.27
2019-01-14T06:14:28.284Z,3.90
2019-01-14T06:16:55.862Z,4.80
2019-01-14T06:19:24.696Z,3.60
2019-01-14T06:21:52.721Z,3.30
2019-01-14T06:24:20.372Z,4.10
2019-01-14T06:26:48.659Z,3.20
2019-01-14T06:29:16.675Z,4.17
2019-01-14T06:31:44.663Z,3.50
2019-01-14T06:34:12.666Z,3.50
2019-01-14T06:36:40.426Z,3.10
2019-01-14T06:39:09.903Z,2.77
2019-01-14T06:41:37.876Z,3.37
2019-01-14T06:44:05.621Z,2.90
2019-01-14T06:46:33.938Z,2.70
2019-01-14T06:49:03.845Z,3.53
2019-01-14T06:51:31.779Z,3.80
2019-01-14T06:54:00.426Z,3.47
2019-01-14T06:56:28.422Z,3.07
2019-01-14T06:58:55.689Z,3.00
2019-01-14T07:01:23.360Z,3.60
2019-01-14T07:03:51.282Z,3.60
2019-01-14T07:06:19.357Z,3.30
2019-01-14T07:08:47.659Z,3.73
2019-01-14T07:11:15.823Z,4.10
2019-01-14T07:13:43.989Z,3.00
2019-01-14T07:16:11.648Z,3.20
2019-01-14T07:18:39.700Z,2.30
2019-01-14T07:21:07.632Z,2.00
2019-01-14T07:23:36.309Z,2.87
2019-01-14T07:26:04.339Z,2.50
2019-01-14T07:28:32.728Z,2.93
2019-01-14T07:31:00.688Z,2.97
2019-01-14T07:33:29.329Z,2.50
2019-01-14T07:35:57.187Z,2.57
2019-01-14T07:38:25.550Z,4.03
2019-01-14T07:40:53.474Z,5.00
2019-01-14T07:43:21.831Z,2.37
2019-01-14T07:45:50.175Z,3.30
2019-01-14T07:48:18.179Z,2.90
2019-01-14T07:50:46.176Z,3.73
2019-01-14T07:53:14.474Z,3.40
2019-01-14T07:55:42.395Z,3.30
2019-01-14T07:58:10.133Z,2.70
2019-01-14T08:00:38.108Z,2.70
2019-01-14T08:03:06.443Z,2.20
2019-01-14T08:05:34.353Z,2.63
2019-01-14T08:08:02.400Z,2.43
2019-01-14T08:10:30.410Z,2.17
2019-01-14T08:12:58.150Z,2.93
2019-01-14T08:15:26.125Z,2.40
2019-01-14T08:17:54.121Z,5.77
2019-01-14T08:20:22.486Z,2.30
2019-01-14T08:22:50.786Z,4.00
2019-01-14T08:25:18.511Z,4.37
2019-01-14T08:27:47.206Z,2.60
2019-01-14T08:30:19.407Z,2.13
2019-01-14T08:32:47.325Z,2.17
2019-01-14T08:35:15.903Z,1.70
2019-01-14T08:37:43.691Z,3.00
2019-01-14T08:40:12.407Z,2.00
2019-01-14T08:42:40.753Z,2.60
2019-01-14T08:45:10.086Z,2.50
2019-01-14T08:47:38.039Z,2.60
2019-01-14T08:50:09.614Z,2.63
2019-01-14T08:52:37.679Z,2.43
2019-01-14T08:55:06.147Z,2.60
2019-01-14T08:57:35.124Z,2.33
2019-01-14T09:00:03.936Z,8.60
2019-01-14T09:02:31.880Z,2.20
2019-01-14T09:04:59.500Z,2.40
2019-01-14T09:07:27.836Z,2.27
2019-01-14T09:09:55.095Z,3.33
2019-01-14T09:12:23.352Z,2.33
2019-01-14T09:14:51.643Z,2.37
2019-01-14T09:17:19.251Z,2.40
2019-01-14T09:19:47.235Z,3.07
2019-01-14T09:22:15.963Z,3.67
2019-01-14T09:24:44.551Z,2.53
2019-01-14T09:27:13.082Z,2.67
2019-01-14T09:29:40.689Z,1.47
2019-01-14T09:32:08.221Z,1.50
2019-01-14T09:34:36.304Z,0.80
2019-01-14T09:37:04.717Z,1.23
2019-01-14T09:39:33.678Z,0.70
2019-01-14T09:42:01.651Z,1.07
2019-01-14T09:44:30.493Z,1.73
2019-01-14T09:47:02.386Z,0.90
2019-01-14T09:49:31.537Z,2.10
2019-01-14T09:51:59.348Z,4.77
2019-01-14T09:54:27.615Z,2.70
2019-01-14T09:56:55.548Z,1.00
2019-01-14T09:59:23.098Z,1.10
2019-01-14T10:01:50.695Z,1.23
2019-01-14T10:04:18.773Z,1.27
2019-01-14T10:06:46.666Z,2.07
2019-01-14T10:09:15.062Z,0.80
2019-01-14T10:11:43.746Z,1.50
2019-01-14T10:14:11.647Z,1.27
2019-01-14T10:16:40.224Z,0.50
2019-01-14T10:19:08.679Z,0.90
2019-01-14T10:21:36.599Z,0.67
2019-01-14T10:24:05.012Z,0.63
2019-01-14T10:26:33.165Z,0.93
2019-01-14T10:29:01.571Z,1.23
2019-01-14T10:31:29.767Z,1.07
2019-01-14T10:33:58.065Z,1.17
2019-01-14T10:36:26.300Z,0.90
2019-01-14T10:38:55.022Z,1.60
2019-01-14T10:41:23.292Z,1.37
2019-01-14T10:43:51.616Z,1.43
2019-01-14T10:46:19.863Z,1.20
2019-01-14T10:48:47.733Z,0.97
2019-01-14T10:51:16.122Z,1.00
2019-01-14T10:53:44.480Z,0.70
2019-01-14T10:56:12.716Z,1.20
2019-01-14T10:58:41.062Z,2.53
2019-01-14T11:01:08.950Z,3.13
2019-01-14T11:03:39.369Z,1.50
2019-01-14T11:06:07.011Z,1.13
2019-01-14T11:08:34.671Z,0.80
2019-01-14T11:11:02.570Z,1.07
2019-01-14T11:13:30.483Z,0.87
2019-01-14T11:15:58.179Z,0.90
2019-01-14T11:18:26.014Z,1.10
2019-01-14T11:20:54.018Z,0.93
2019-01-14T11:23:21.579Z,1.10
2019-01-14T11:25:49.859Z,0.80
2019-01-14T11:28:17.919Z,1.43
2019-01-14T11:30:45.170Z,1.27
2019-01-14T11:33:13.386Z,1.73
2019-01-14T11:35:41.713Z,1.27
2019-01-14T11:38:42.384Z,1.10
2019-01-14T11:41:10.293Z,1.60
2019-01-14T11:43:37.930Z,2.07
2019-01-14T11:46:06.551Z,1.80
2019-01-14T11:48:34.579Z,1.90
2019-01-14T11:51:02.488Z,1.90
2019-01-14T11:53:30.771Z,2.20
2019-01-14T11:55:58.730Z,2.27
2019-01-14T11:58:26.605Z,1.90
2019-01-14T12:00:54.526Z,1.83
2019-01-14T12:03:22.561Z,2.57
2019-01-14T12:05:51.024Z,2.17
2019-01-14T12:08:20.987Z,2.70
2019-01-14T12:10:48.471Z,2.40
2019-01-14T12:13:16.466Z,2.50
2019-01-14T12:15:44.118Z,2.97
2019-01-14T12:18:12.083Z,2.00
2019-01-14T12:20:39.643Z,2.73
2019-01-14T12:23:07.753Z,2.13
2019-01-14T12:25:35.475Z,2.20
2019-01-14T12:28:03.996Z,2.87
2019-01-14T12:30:34.167Z,2.10
2019-01-14T12:33:01.814Z,2.13
2019-01-14T12:35:29.865Z,2.43
2019-01-14T12:37:57.230Z,3.57
2019-01-14T12:40:25.582Z,2.00
2019-01-14T12:42:53.304Z,2.80
2019-01-14T12:45:22.120Z,2.17
2019-01-14T12:47:51.020Z,2.43
2019-01-14T12:50:18.345Z,3.00
2019-01-14T12:52:46.779Z,1.60
2019-01-14T12:55:16.120Z,2.23
2019-01-14T12:57:44.214Z,1.63
2019-01-14T13:00:17.642Z,2.40
2019-01-14T13:02:45.240Z,2.27
2019-01-14T13:05:14.307Z,2.60
2019-01-14T13:07:42.598Z,2.47
2019-01-14T13:10:10.317Z,1.80
2019-01-14T13:12:38.638Z,1.70
2019-01-14T13:15:10.484Z,1.50
2019-01-14T13:17:38.495Z,2.17
2019-01-14T13:20:07.236Z,2.20
2019-01-14T13:22:34.852Z,1.83
2019-01-14T13:25:03.168Z,1.63
2019-01-14T13:27:31.104Z,1.33
2019-01-14T13:29:58.823Z,1.53
2019-01-14T13:32:26.199Z,1.80
2019-01-14T13:34:54.923Z,2.10
2019-01-14T13:37:22.932Z,2.10
2019-01-14T13:39:52.578Z,2.13
2019-01-14T13:42:20.038Z,2.37
2019-01-14T13:44:48.413Z,2.40
2019-01-14T13:47:16.738Z,2.53
2019-01-14T13:49:45.762Z,2.17
2019-01-14T13:52:13.804Z,2.63
2019-01-14T13:54:41.531Z,2.13
2019-01-14T13:57:09.752Z,1.70
2019-01-14T13:59:43.362Z,1.97
2019-01-14T14:02:13.318Z,1.90
2019-01-14T14:04:41.673Z,3.20
2019-01-14T14:07:09.627Z,1.37
2019-01-14T14:09:41.325Z,1.93
2019-01-14T14:12:09.326Z,1.50
2019-01-14T14:14:38.143Z,2.10
2019-01-14T14:17:09.395Z,1.43
2019-01-14T14:19:40.453Z,2.07
2019-01-14T14:22:11.790Z,1.57
2019-01-14T14:24:41.312Z,2.10
2019-01-14T14:27:13.398Z,2.57
2019-01-14T14:29:41.517Z,2.07
2019-01-14T14:32:12.822Z,1.77
2019-01-14T14:34:43.191Z,1.73
2019-01-14T14:37:18.428Z,1.40
2019-01-14T14:39:49.464Z,2.00
2019-01-14T14:42:18.975Z,1.37
2019-01-14T14:44:48.423Z,2.00
2019-01-14T14:47:16.988Z,4.03
2019-01-14T14:49:44.260Z,1.60
2019-01-14T14:52:13.424Z,2.00
2019-01-14T14:54:45.451Z,2.23
2019-01-14T14:57:13.451Z,1.97
2019-01-14T14:59:44.075Z,1.97
2019-01-14T15:02:14.370Z,2.43
2019-01-14T15:04:42.731Z,1.77
2019-01-14T15:07:11.122Z,2.17
2019-01-14T15:09:48.004Z,1.70
2019-01-14T15:12:17.616Z,1.70
2019-01-14T15:14:47.134Z,2.50
2019-01-14T15:17:14.407Z,2.10
2019-01-14T15:19:45.526Z,2.10
2019-01-14T15:22:18.271Z,2.00
2019-01-14T15:24:49.533Z,1.63
2019-01-14T15:27:19.851Z,2.00
2019-01-14T15:29:51.678Z,2.97
2019-01-14T15:32:21.219Z,1.90
2019-01-14T15:34:50.254Z,2.43
2019-01-14T15:37:18.784Z,2.07
2019-01-14T15:39:48.765Z,2.70
2019-01-14T15:42:16.979Z,2.00
2019-01-14T15:44:45.018Z,2.07
2019-01-14T15:47:14.145Z,3.10
2019-01-14T15:49:42.795Z,1.37
2019-01-14T15:52:25.040Z,1.43
2019-01-14T15:54:53.391Z,2.00
2019-01-14T15:57:23.466Z,2.13
2019-01-14T15:59:51.500Z,1.53
2019-01-14T16:02:23.813Z,1.30
2019-01-14T16:05:01.081Z,2.40
2019-01-14T16:07:31.907Z,1.80
2019-01-14T16:10:10.383Z,3.03
2019-01-14T16:12:36.468Z,3.87
2019-01-14T16:15:15.789Z,4.47
2019-01-14T16:17:43.516Z,3.07
2019-01-14T16:20:16.630Z,2.13
2019-01-14T16:22:45.589Z,2.20
2019-01-14T16:25:24.162Z,0.80
2019-01-14T16:27:52.500Z,2.33
2019-01-14T16:30:23.908Z,2.50
2019-01-14T16:32:59.087Z,2.40
2019-01-14T16:35:27.478Z,1.80
2019-01-14T16:37:56.380Z,2.00
2019-01-14T16:40:30.189Z,3.50
2019-01-14T16:42:58.582Z,2.07
2019-01-14T16:45:27.498Z,1.60
2019-01-14T16:47:55.694Z,2.30
2019-01-14T16:50:24.068Z,1.77
2019-01-14T16:52:52.293Z,3.67
2019-01-14T16:55:45.813Z,2.90
2019-01-14T16:58:14.189Z,2.27
2019-01-14T17:00:42.662Z,3.23
2019-01-14T17:03:11.191Z,3.17
2019-01-14T17:05:39.763Z,3.40
2019-01-14T17:08:07.958Z,3.90
2019-01-14T17:10:36.472Z,3.50
2019-01-14T17:13:04.824Z,4.27
2019-01-14T17:15:32.226Z,3.57
2019-01-14T17:18:00.391Z,3.30
2019-01-14T17:20:28.892Z,2.40
2019-01-14T17:22:57.979Z,5.10
2019-01-14T17:25:26.547Z,2.13
2019-01-14T17:27:54.319Z,2.90
2019-01-14T17:30:23.147Z,2.50
2019-01-14T17:32:51.618Z,2.70
2019-01-14T17:35:19.668Z,3.50
2019-01-14T17:37:47.637Z,2.60
2019-01-14T17:40:17.347Z,2.50
2019-01-14T17:42:45.332Z,4.00
2019-01-14T17:45:14.081Z,4.07
2019-01-14T17:47:42.830Z,4.33
2019-01-14T17:50:12.490Z,3.90
2019-01-14T17:52:40.883Z,5.00
2019-01-14T17:55:09.156Z,3.40
2019-01-14T17:57:38.438Z,3.90
2019-01-14T18:00:08.922Z,3.37
2019-01-14T18:02:37.335Z,3.70
2019-01-14T18:05:05.454Z,3.10
2019-01-14T18:07:33.899Z,2.40
2019-01-14T18:10:01.853Z,2.77
2019-01-14T18:12:29.153Z,2.50
2019-01-14T18:14:57.233Z,3.43
2019-01-14T18:17:25.371Z,2.33
2019-01-14T18:19:53.386Z,2.90
2019-01-14T18:22:21.874Z,3.70
2019-01-14T18:24:55.086Z,4.27
2019-01-14T18:27:23.572Z,5.20
2019-01-14T18:29:51.476Z,3.83
2019-01-14T18:32:20.040Z,3.03
2019-01-14T18:34:48.809Z,2.43
2019-01-14T18:37:16.791Z,4.40
2019-01-14T18:39:44.813Z,3.50
2019-01-14T18:42:13.322Z,3.10
2019-01-14T18:44:42.165Z,3.63
2019-01-14T18:47:10.513Z,4.10
2019-01-14T18:49:38.467Z,2.60
2019-01-14T18:52:06.854Z,7.70
2019-01-14T18:54:34.702Z,8.83
2019-01-14T18:57:02.481Z,9.93
2019-01-14T18:59:30.561Z,4.37
2019-01-14T19:01:58.311Z,3.60
2019-01-14T19:04:26.389Z,4.13
2019-01-14T19:06:54.828Z,3.27
2019-01-14T19:09:22.491Z,3.97
2019-01-14T19:11:50.949Z,3.63
2019-01-14T19:14:19.048Z,4.20
2019-01-14T19:16:47.458Z,3.87
2019-01-14T19:19:15.480Z,3.37
2019-01-14T19:21:43.602Z,3.20
2019-01-14T19:24:11.299Z,3.37
2019-01-14T19:26:41.249Z,6.10
2019-01-14T19:29:09.070Z,3.07
2019-01-14T19:31:36.646Z,2.97
2019-01-14T19:34:04.725Z,3.70
2019-01-14T19:36:33.112Z,3.30
2019-01-14T19:39:01.077Z,6.90
2019-01-14T19:41:29.693Z,5.77
2019-01-14T19:43:58.147Z,9.20
2019-01-14T19:46:26.674Z,7.40
2019-01-14T19:48:54.406Z,5.60
2019-01-14T19:51:21.714Z,4.83
2019-01-14T19:53:49.635Z,3.43
2019-01-14T19:56:17.676Z,2.50
2019-01-14T19:58:45.659Z,6.30
2019-01-14T20:01:13.437Z,5.13
2019-01-14T20:03:41.475Z,4.27
2019-01-14T20:06:09.284Z,3.03
2019-01-14T20:08:38.100Z,3.70
2019-01-14T20:11:09.275Z,3.67
2019-01-14T20:13:36.709Z,2.87
2019-01-14T20:16:06.416Z,3.57
2019-01-14T20:18:34.149Z,3.40
2019-01-14T20:21:02.329Z,3.90
2019-01-14T20:23:30.696Z,3.00
2019-01-14T20:25:59.397Z,4.07
2019-01-14T20:28:27.331Z,2.93
2019-01-14T20:30:55.715Z,3.73
2019-01-14T20:33:26.364Z,2.87
2019-01-14T20:35:55.798Z,3.97
2019-01-14T20:38:23.604Z,4.80
2019-01-14T20:40:51.779Z,3.83
2019-01-14T20:43:19.764Z,3.10
2019-01-14T20:45:48.027Z,3.00
2019-01-14T20:48:16.356Z,2.23
2019-01-14T20:50:44.015Z,2.73
2019-01-14T20:53:13.780Z,3.43
2019-01-14T20:55:41.139Z,4.00
2019-01-14T20:58:11.417Z,3.80
2019-01-14T21:00:41.765Z,6.67
2019-01-14T21:03:18.764Z,4.07
2019-01-14T21:05:49.534Z,5.80
2019-01-14T21:08:18.177Z,5.13
2019-01-14T21:10:46.332Z,3.63
2019-01-14T21:13:15.091Z,3.40
2019-01-14T21:15:43.154Z,3.20
2019-01-14T21:18:11.221Z,3.57
2019-01-14T21:20:39.365Z,3.00
2019-01-14T21:23:07.211Z,3.90
2019-01-14T21:25:35.916Z,4.33
2019-01-14T21:28:03.637Z,4.63
2019-01-14T21:30:31.430Z,4.70
2019-01-14T21:32:59.778Z,4.97
2019-01-14T21:35:28.014Z,5.30
2019-01-14T21:37:57.883Z,4.10
2019-01-14T21:40:25.699Z,4.37
2019-01-14T21:42:53.101Z,3.83
2019-01-14T21:45:21.929Z,4.67
2019-01-14T21:47:50.176Z,4.10
2019-01-14T21:50:18.112Z,5.33
2019-01-14T21:52:46.266Z,4.90
2019-01-14T21:55:16.176Z,4.60
2019-01-14T21:57:43.852Z,4.37
2019-01-14T22:00:14.304Z,5.63
2019-01-14T22:02:42.360Z,4.63
2019-01-14T22:05:10.116Z,5.80
2019-01-14T22:07:38.390Z,6.30
2019-01-14T22:10:09.116Z,4.70
2019-01-14T22:12:36.749Z,4.50
2019-01-14T22:15:05.519Z,4.30
2019-01-14T22:17:35.808Z,3.70
2019-01-14T22:20:08.025Z,4.73
2019-01-14T22:22:35.997Z,3.80
2019-01-14T22:25:05.568Z,5.27
2019-01-14T22:27:34.441Z,4.90
2019-01-14T22:30:02.540Z,3.93
2019-01-14T22:32:30.814Z,4.00
2019-01-14T22:34:59.382Z,4.23
2019-01-14T22:37:28.017Z,4.43
2019-01-14T22:39:56.269Z,4.63
2019-01-14T22:42:24.121Z,3.03
2019-01-14T22:44:53.930Z,3.90
2019-01-14T22:47:21.675Z,3.13
2019-01-14T22:49:49.569Z,3.43
2019-01-14T22:52:17.125Z,3.53
2019-01-14T22:54:45.309Z,3.10
2019-01-14T22:57:14.905Z,3.43
2019-01-14T22:59:42.580Z,2.63
2019-01-14T23:02:11.475Z,4.47
2019-01-14T23:04:38.976Z,4.27
2019-01-14T23:07:08.217Z,2.90
2019-01-14T23:09:36.313Z,2.97
2019-01-14T23:12:04.435Z,3.77
2019-01-14T23:14:32.493Z,3.37
2019-01-14T23:17:00.992Z,3.20
2019-01-14T23:19:29.084Z,2.90
2019-01-14T23:21:57.144Z,3.50
2019-01-14T23:24:25.598Z,4.23
2019-01-14T23:26:54.214Z,3.53
2019-01-14T23:29:22.516Z,3.73
2019-01-14T23:31:50.482Z,2.83
2019-01-14T23:34:18.948Z,3.13
2019-01-14T23:36:47.358Z,4.23
2019-01-14T23:39:15.610Z,5.80
2019-01-14T23:41:43.594Z,4.23
2019-01-14T23:44:13.063Z,5.00
2019-01-14T23:46:40.949Z,3.40
2019-01-14T23:49:09.431Z,4.03
2019-01-14T23:51:37.512Z,5.13
2019-01-14T23:54:05.680Z,4.03
2019-01-14T23:56:34.218Z,4.23
2019-01-14T23:59:02.376Z,3.30
